Time;durP1;ratioP1;P1;durP2;ratioP2;P2;SDS_P1;SDS_P2;PMS_P1;PMS_P2;Temp;Humidity;BMP_temperature;BMP_pressure;BME280_temperature;BME280_humidity;BME280_pressure;Samples;Min_cycle;Max_cycle;Signal;HPM_P1;HPM_P2
2021/04/10 00:01:08;;;;;;;7.90;3.97;;;6.60;49.80;;;;;;5106771;28;20028;-64
2021/04/10 00:03:35;;;;;;;7.07;3.40;;;6.60;49.80;;;;;;5108721;28;20039;-65
2021/04/10 00:06:01;;;;;;;6.18;4.00;;;6.50;49.80;;;;;;5104676;28;20534;-65
2021/04/10 00:08:27;;;;;;;4.70;2.90;;;6.50;49.90;;;;;;5103483;28;20082;-64
2021/04/10 00:10:53;;;;;;;6.65;3.03;;;6.50;49.90;;;;;;5095586;28;20051;-64
2021/04/10 00:13:18;;;;;;;5.20;2.90;;;6.50;50.40;;;;;;5112196;28;20030;-62
2021/04/10 00:15:45;;;;;;;5.10;2.80;;;6.50;50.00;;;;;;5101673;28;20027;-64
2021/04/10 00:18:10;;;;;;;7.78;3.22;;;6.40;49.90;;;;;;5115122;28;20023;-64
2021/04/10 00:20:36;;;;;;;5.05;2.70;;;6.40;49.90;;;;;;5108604;28;20085;-64
2021/04/10 00:23:02;;;;;;;6.07;3.10;;;6.40;50.00;;;;;;5115625;28;20030;-65
2021/04/10 00:25:28;;;;;;;5.38;2.92;;;6.40;50.00;;;;;;5100508;28;20437;-65
2021/04/10 00:27:53;;;;;;;6.53;3.08;;;6.30;50.10;;;;;;5095051;28;20020;-65
2021/04/10 00:30:20;;;;;;;3.85;2.70;;;6.30;50.10;;;;;;5093926;28;20032;-65
2021/04/10 00:32:45;;;;;;;4.53;2.58;;;6.30;50.10;;;;;;5104750;28;20087;-65
2021/04/10 00:35:12;;;;;;;6.32;3.10;;;6.20;50.00;;;;;;5099588;28;20023;-65
2021/04/10 00:37:38;;;;;;;4.28;2.97;;;6.20;50.10;;;;;;5083887;28;20435;-64
2021/04/10 00:40:06;;;;;;;4.95;2.95;;;6.20;50.10;;;;;;5095132;28;20459;-65
2021/04/10 00:42:33;;;;;;;4.30;2.95;;;6.20;50.10;;;;;;5094395;28;20020;-65
2021/04/10 00:44:59;;;;;;;7.43;2.97;;;6.10;50.10;;;;;;5107237;28;20051;-66
2021/04/10 00:47:25;;;;;;;5.13;3.15;;;6.10;50.20;;;;;;5106791;28;20064;-64
2021/04/10 00:49:50;;;;;;;4.28;3.13;;;6.10;50.20;;;;;;5076361;28;20031;-65
2021/04/10 00:52:17;;;;;;;4.22;3.00;;;6.10;50.30;;;;;;5094173;28;20368;-65
2021/04/10 00:54:47;;;;;;;5.97;3.03;;;6.10;50.30;;;;;;5103510;28;20106;-64
2021/04/10 00:57:13;;;;;;;4.63;3.15;;;6.00;50.20;;;;;;5096526;28;20040;-65
2021/04/10 00:59:39;;;;;;;5.03;3.08;;;6.00;50.20;;;;;;5094397;28;20032;-66
2021/04/10 01:02:07;;;;;;;5.03;2.90;;;6.00;50.30;;;;;;5111032;28;20047;-66
2021/04/10 01:04:33;;;;;;;6.15;3.00;;;6.00;50.30;;;;;;5115350;28;20023;-65
2021/04/10 01:06:59;;;;;;;7.35;4.00;;;6.00;50.30;;;;;;5099167;28;20378;-65
2021/04/10 01:09:25;;;;;;;5.90;3.67;;;5.90;50.40;;;;;;5102319;28;20089;-64
2021/04/10 01:12:05;;;;;;;7.03;3.20;;;5.90;50.40;;;;;;5098453;28;20035;-64
2021/04/10 01:14:59;;;;;;;6.53;3.30;;;5.90;50.50;;;;;;5102080;28;20077;-65
2021/04/10 01:17:30;;;;;;;7.63;3.63;;;5.90;50.50;;;;;;5073595;28;20033;-64
2021/04/10 01:20:05;;;;;;;6.82;3.08;;;5.90;50.50;;;;;;5111435;28;20501;-65
2021/04/10 01:22:50;;;;;;;6.03;3.27;;;5.80;50.50;;;;;;5093803;28;20036;-65
2021/04/10 01:25:37;;;;;;;3.17;2.65;;;5.80;50.50;;;;;;5096474;28;20048;-64
2021/04/10 01:28:16;;;;;;;8.30;3.35;;;5.80;50.40;;;;;;5094533;28;20111;-65
2021/04/10 01:30:44;;;;;;;6.18;3.30;;;5.80;50.30;;;;;;5093814;28;20073;-65
2021/04/10 01:33:14;;;;;;;6.13;3.60;;;5.80;50.30;;;;;;5110571;28;20020;-65
2021/04/10 01:35:49;;;;;;;5.30;3.80;;;5.70;50.30;;;;;;5111210;28;20080;-64
2021/04/10 01:38:17;;;;;;;6.93;3.63;;;5.70;50.40;;;;;;5109786;28;20024;-64
2021/04/10 01:40:48;;;;;;;6.65;3.90;;;5.70;50.60;;;;;;5093299;28;20051;-65
2021/04/10 01:43:15;;;;;;;7.03;3.97;;;5.70;50.70;;;;;;5112235;28;20023;-65
2021/04/10 01:45:41;;;;;;;6.03;4.32;;;5.70;50.70;;;;;;5097086;28;20471;-63
2021/04/10 01:48:12;;;;;;;6.05;3.95;;;5.50;50.70;;;;;;5095149;28;20035;-63
2021/04/10 01:50:39;;;;;;;6.90;4.47;;;5.60;50.80;;;;;;5114322;28;20519;-64
2021/04/10 01:53:06;;;;;;;6.85;3.85;;;5.70;50.90;;;;;;5110682;28;20035;-64
2021/04/10 01:55:32;;;;;;;8.65;4.63;;;5.60;51.00;;;;;;5094049;28;20069;-65
2021/04/10 01:57:59;;;;;;;6.70;3.92;;;5.60;51.10;;;;;;5094015;28;20103;-64
2021/04/10 02:00:27;;;;;;;8.10;4.28;;;5.60;51.10;;;;;;5074738;28;20031;-65
2021/04/10 02:02:54;;;;;;;6.35;4.68;;;5.60;51.10;;;;;;5102926;28;20043;-66
2021/04/10 02:05:21;;;;;;;10.35;4.65;;;5.60;51.10;;;;;;5096209;28;20046;-66
2021/04/10 02:07:49;;;;;;;6.97;4.47;;;5.50;51.20;;;;;;5093377;28;20164;-64
2021/04/10 02:10:22;;;;;;;9.13;4.47;;;5.50;51.30;;;;;;5094781;28;20023;-65
2021/04/10 02:12:52;;;;;;;8.27;4.20;;;5.50;51.40;;;;;;5108667;28;20020;-64
2021/04/10 02:15:20;;;;;;;7.68;4.35;;;5.50;51.50;;;;;;5102567;28;20024;-67
2021/04/10 02:17:46;;;;;;;7.80;4.35;;;5.50;51.60;;;;;;5109636;28;20493;-65
2021/04/10 02:20:14;;;;;;;6.57;4.70;;;5.40;51.60;;;;;;5092731;28;20025;-64
2021/04/10 02:22:43;;;;;;;7.22;4.22;;;5.40;51.70;;;;;;5107155;28;20045;-64
2021/04/10 02:25:10;;;;;;;9.43;4.95;;;5.40;51.70;;;;;;5093457;28;20425;-64
2021/04/10 02:27:36;;;;;;;11.95;4.45;;;5.40;51.70;;;;;;5108394;28;20027;-64
2021/04/10 02:30:03;;;;;;;11.63;4.30;;;5.40;51.80;;;;;;5095451;28;20024;-63
2021/04/10 02:32:39;;;;;;;7.70;4.20;;;5.40;51.90;;;;;;5092870;28;20076;-64
2021/04/10 02:35:26;;;;;;;8.63;4.20;;;5.40;51.90;;;;;;5092842;28;20062;-63
2021/04/10 02:37:53;;;;;;;5.65;3.75;;;5.40;51.90;;;;;;5094204;28;20035;-64
2021/04/10 02:40:21;;;;;;;9.10;4.50;;;5.30;51.90;;;;;;5092582;28;20024;-63
2021/04/10 02:42:48;;;;;;;7.00;4.35;;;5.30;51.90;;;;;;5092297;28;20090;-66
2021/04/10 02:45:24;;;;;;;6.90;4.15;;;5.30;52.00;;;;;;5093533;28;20077;-65
2021/04/10 02:47:54;;;;;;;12.55;5.43;;;5.30;52.10;;;;;;5096128;28;20024;-62
2021/04/10 02:50:21;;;;;;;6.57;4.30;;;5.30;52.60;;;;;;5091297;28;20066;-64
2021/04/10 02:52:51;;;;;;;9.80;4.70;;;5.30;52.10;;;;;;5095428;28;20024;-65
2021/04/10 02:55:27;;;;;;;8.18;4.63;;;5.20;52.00;;;;;;5110208;28;20409;-65
2021/04/10 02:57:54;;;;;;;12.88;5.30;;;5.20;52.00;;;;;;5078938;28;20052;-65
2021/04/10 03:00:20;;;;;;;8.77;4.57;;;5.20;52.00;;;;;;5092200;28;20176;-64
2021/04/10 03:02:47;;;;;;;8.20;5.53;;;5.10;52.00;;;;;;5108481;28;20015;-64
2021/04/10 03:05:13;;;;;;;7.28;4.60;;;5.10;52.10;;;;;;5095145;28;20024;-65
2021/04/10 03:07:48;;;;;;;6.88;4.45;;;5.10;52.20;;;;;;5105279;28;20024;-66
2021/04/10 03:10:16;;;;;;;8.90;5.10;;;5.00;52.20;;;;;;5091748;28;20057;-63
2021/04/10 03:12:43;;;;;;;5.25;4.03;;;5.00;52.20;;;;;;5083214;28;20024;-64
2021/04/10 03:15:14;;;;;;;7.28;4.43;;;5.00;52.30;;;;;;5108679;28;20039;-63
2021/04/10 03:17:40;;;;;;;5.78;4.20;;;4.90;52.30;;;;;;5107085;28;20021;-65
2021/04/10 03:20:11;;;;;;;6.82;5.45;;;4.90;52.40;;;;;;5093716;28;20024;-64
2021/04/10 03:22:40;;;;;;;8.35;5.30;;;4.90;52.50;;;;;;5111343;28;20062;-63
2021/04/10 03:25:06;;;;;;;10.85;4.50;;;4.80;52.50;;;;;;5110811;28;20043;-65
2021/04/10 03:27:32;;;;;;;8.18;4.30;;;4.80;52.60;;;;;;5091958;28;20036;-64
2021/04/10 03:29:58;;;;;;;7.18;4.22;;;4.80;52.60;;;;;;5092981;28;20046;-65
2021/04/10 03:32:27;;;;;;;10.68;4.68;;;4.70;52.60;;;;;;5100082;28;20016;-64
2021/04/10 03:34:53;;;;;;;9.05;5.18;;;4.80;52.70;;;;;;5107841;28;20051;-65
2021/04/10 03:37:19;;;;;;;5.95;4.55;;;4.70;52.70;;;;;;5092986;28;20059;-63
2021/04/10 03:39:45;;;;;;;8.68;4.38;;;4.70;52.70;;;;;;5093720;28;20432;-66
2021/04/10 03:42:11;;;;;;;6.70;4.57;;;4.70;52.80;;;;;;5106528;28;20031;-66
2021/04/10 03:44:37;;;;;;;8.43;5.22;;;4.60;52.90;;;;;;5104236;28;20028;-64
2021/04/10 03:47:04;;;;;;;7.88;4.82;;;4.60;52.90;;;;;;5097792;28;20020;-64
2021/04/10 03:49:30;;;;;;;7.43;4.63;;;4.60;53.00;;;;;;5095537;28;20028;-64
2021/04/10 03:51:56;;;;;;;8.60;5.32;;;4.60;53.00;;;;;;5103772;28;20350;-64
2021/04/10 03:54:21;;;;;;;10.68;4.60;;;4.60;53.00;;;;;;5114321;28;20426;-64
2021/04/10 03:56:47;;;;;;;10.15;5.35;;;4.60;53.10;;;;;;5103758;28;20028;-64
2021/04/10 03:59:13;;;;;;;8.73;5.18;;;4.60;53.20;;;;;;5095449;28;20067;-65
2021/04/10 04:01:39;;;;;;;7.72;5.20;;;4.60;53.20;;;;;;5113221;27;20416;-63
2021/04/10 04:04:05;;;;;;;7.50;5.00;;;4.60;53.20;;;;;;5094786;28;20031;-64
2021/04/10 04:06:31;;;;;;;7.95;5.15;;;4.60;53.30;;;;;;5109129;28;20128;-64
2021/04/10 04:08:56;;;;;;;9.55;4.57;;;4.60;53.30;;;;;;5113489;28;20418;-65
2021/04/10 04:11:22;;;;;;;9.07;4.78;;;4.60;53.20;;;;;;5097658;28;20405;-64
2021/04/10 04:13:48;;;;;;;8.50;4.50;;;4.60;53.30;;;;;;5114401;28;20019;-63
2021/04/10 04:16:13;;;;;;;7.53;4.28;;;4.50;53.20;;;;;;5121657;27;20035;-65
2021/04/10 04:18:39;;;;;;;6.28;4.25;;;4.50;53.20;;;;;;5115419;28;20051;-65
2021/04/10 04:21:05;;;;;;;7.43;5.15;;;4.50;53.10;;;;;;5095774;28;20020;-65
2021/04/10 04:23:31;;;;;;;9.82;5.07;;;4.50;53.10;;;;;;5110086;28;20040;-64
2021/04/10 04:25:57;;;;;;;11.75;5.25;;;4.50;53.10;;;;;;5096281;28;20040;-63
2021/04/10 04:28:22;;;;;;;10.02;4.97;;;4.40;53.10;;;;;;5095194;28;20529;-63
2021/04/10 04:30:48;;;;;;;7.88;5.22;;;4.40;53.20;;;;;;5095813;28;20081;-64
2021/04/10 04:33:15;;;;;;;8.40;5.20;;;4.30;53.20;;;;;;5103136;28;20081;-63
2021/04/10 04:35:40;;;;;;;8.75;4.57;;;4.30;53.30;;;;;;5082748;28;20027;-64
2021/04/10 04:38:06;;;;;;;8.23;4.85;;;4.30;53.40;;;;;;5105207;28;20024;-64
2021/04/10 04:40:32;;;;;;;9.20;4.85;;;4.20;53.40;;;;;;5098554;28;20095;-64
2021/04/10 04:42:58;;;;;;;8.45;5.50;;;4.20;53.50;;;;;;5105194;28;20429;-65
2021/04/10 04:45:24;;;;;;;7.32;4.38;;;4.20;53.60;;;;;;5100508;28;20031;-65
2021/04/10 04:47:50;;;;;;;7.57;4.72;;;4.10;53.60;;;;;;5107484;28;20501;-63
2021/04/10 04:50:16;;;;;;;9.98;4.72;;;4.10;53.70;;;;;;5099629;28;20024;-65
2021/04/10 04:52:41;;;;;;;9.50;5.30;;;4.10;53.70;;;;;;5100787;28;20039;-66
2021/04/10 04:55:08;;;;;;;9.30;4.72;;;4.10;53.70;;;;;;5095712;28;20015;-64
2021/04/10 04:57:33;;;;;;;6.93;4.78;;;4.10;53.70;;;;;;5094108;28;20390;-65
2021/04/10 04:59:59;;;;;;;6.95;4.85;;;4.20;53.70;;;;;;5096319;28;20032;-63
2021/04/10 05:02:25;;;;;;;12.55;6.07;;;4.10;53.60;;;;;;5097201;28;20074;-64
2021/04/10 05:04:51;;;;;;;8.02;5.57;;;4.10;53.60;;;;;;5094781;28;20028;-62
2021/04/10 05:07:17;;;;;;;7.82;5.07;;;4.10;53.60;;;;;;5094124;28;20036;-65
2021/04/10 05:09:42;;;;;;;7.85;4.68;;;4.10;53.60;;;;;;5094599;28;20412;-64
2021/04/10 05:12:08;;;;;;;8.57;4.65;;;4.00;53.60;;;;;;5110372;28;20217;-63
2021/04/10 05:14:34;;;;;;;6.43;4.07;;;4.00;53.70;;;;;;5107392;28;20537;-64
2021/04/10 05:17:00;;;;;;;8.90;4.88;;;4.00;53.80;;;;;;5114298;28;20074;-63
2021/04/10 05:19:26;;;;;;;6.78;4.70;;;4.00;53.80;;;;;;5094514;28;20032;-65
2021/04/10 05:21:51;;;;;;;9.23;5.25;;;4.00;53.80;;;;;;5096590;28;20024;-63
2021/04/10 05:24:17;;;;;;;7.25;4.63;;;4.00;53.90;;;;;;5094592;28;20081;-65
2021/04/10 05:26:43;;;;;;;7.07;5.25;;;4.00;53.90;;;;;;5095394;28;20028;-64
2021/04/10 05:29:08;;;;;;;8.77;4.68;;;4.00;53.90;;;;;;5093718;28;20429;-64
2021/04/10 05:31:34;;;;;;;7.05;4.47;;;3.90;54.40;;;;;;5102771;28;20031;-64
2021/04/10 05:34:00;;;;;;;9.85;4.90;;;3.90;54.00;;;;;;5100025;28;20039;-65
2021/04/10 05:36:26;;;;;;;10.68;4.90;;;4.00;54.00;;;;;;5098790;28;20541;-63
2021/04/10 05:38:52;;;;;;;9.43;4.50;;;3.90;54.00;;;;;;5094591;28;20058;-64
2021/04/10 05:41:17;;;;;;;7.65;4.90;;;3.90;54.00;;;;;;5095112;28;20107;-64
2021/04/10 05:43:43;;;;;;;7.93;4.93;;;3.90;54.00;;;;;;5093540;28;20386;-66
2021/04/10 05:46:10;;;;;;;12.82;4.93;;;3.90;54.10;;;;;;5081130;28;20047;-66
2021/04/10 05:48:35;;;;;;;9.13;4.90;;;3.90;54.10;;;;;;5093737;28;20028;-64
2021/04/10 05:51:01;;;;;;;9.40;4.93;;;3.80;54.20;;;;;;5094194;28;20020;-66
2021/04/10 05:53:27;;;;;;;7.28;4.93;;;3.90;54.20;;;;;;5093567;28;20020;-65
2021/04/10 05:55:54;;;;;;;8.10;4.18;;;3.90;54.20;;;;;;5096783;28;20081;-66
2021/04/10 05:58:20;;;;;;;11.40;4.60;;;4.00;54.30;;;;;;5101664;28;20041;-63
2021/04/10 06:00:45;;;;;;;13.52;5.75;;;4.00;54.20;;;;;;5105364;28;20099;-63
2021/04/10 06:03:11;;;;;;;5.80;4.45;;;4.10;54.20;;;;;;5092325;28;20036;-66
2021/04/10 06:05:37;;;;;;;10.13;4.82;;;4.20;54.20;;;;;;5100424;28;20027;-65
2021/04/10 06:08:03;;;;;;;7.95;4.47;;;4.30;54.20;;;;;;5112581;28;20094;-65
2021/04/10 06:10:28;;;;;;;11.48;4.85;;;4.30;54.10;;;;;;5097410;28;20539;-65
2021/04/10 06:12:54;;;;;;;8.52;5.15;;;4.40;54.00;;;;;;5093515;28;20429;-64
2021/04/10 06:15:20;;;;;;;9.63;5.20;;;4.40;54.00;;;;;;5099517;28;20115;-65
2021/04/10 06:17:47;;;;;;;6.28;4.30;;;4.50;54.10;;;;;;5107457;28;20371;-65
2021/04/10 06:20:14;;;;;;;6.03;4.55;;;4.60;54.10;;;;;;5111524;28;20067;-65
2021/04/10 06:22:40;;;;;;;11.05;4.50;;;4.60;54.10;;;;;;5100676;28;20058;-64
2021/04/10 06:25:07;;;;;;;7.63;4.22;;;4.80;54.10;;;;;;5093404;28;20040;-65
2021/04/10 06:27:34;;;;;;;7.60;4.35;;;4.90;54.10;;;;;;5077540;28;20066;-66
2021/04/10 06:30:00;;;;;;;5.65;4.20;;;5.00;53.90;;;;;;5092023;28;20073;-64
2021/04/10 06:32:26;;;;;;;7.60;4.30;;;5.10;54.00;;;;;;5073564;28;20111;-65
2021/04/10 06:34:53;;;;;;;8.18;4.10;;;5.10;53.80;;;;;;5081163;28;20091;-64
2021/04/10 06:37:19;;;;;;;9.43;4.38;;;5.30;53.80;;;;;;5093488;28;20023;-66
2021/04/10 06:39:45;;;;;;;6.03;4.28;;;5.40;53.80;;;;;;5102954;28;20031;-65
2021/04/10 06:42:11;;;;;;;6.97;4.38;;;5.50;53.70;;;;;;5107918;28;20092;-64
2021/04/10 06:44:37;;;;;;;6.32;3.90;;;5.60;53.50;;;;;;5094120;28;20027;-66
2021/04/10 06:47:05;;;;;;;6.10;3.47;;;5.70;53.40;;;;;;5108878;28;20410;-65
2021/04/10 06:49:31;;;;;;;6.38;3.65;;;5.80;53.40;;;;;;5093679;28;20024;-64
2021/04/10 06:52:00;;;;;;;8.23;3.63;;;5.90;53.40;;;;;;5092546;28;20038;-65
2021/04/10 06:54:36;;;;;;;8.07;4.10;;;6.00;53.20;;;;;;5095640;28;20079;-65
2021/04/10 06:57:17;;;;;;;8.18;3.90;;;6.10;53.10;;;;;;5092127;28;20772;-65
2021/04/10 07:00:03;;;;;;;6.75;4.25;;;6.20;53.00;;;;;;5093230;28;20475;-66
2021/04/10 07:02:31;;;;;;;7.82;4.55;;;6.30;52.90;;;;;;5093646;28;20032;-66
2021/04/10 07:04:58;;;;;;;5.38;4.10;;;6.40;53.30;;;;;;5096547;28;20047;-66
2021/04/10 07:07:24;;;;;;;13.23;4.75;;;6.50;52.80;;;;;;5102939;28;20414;-65
2021/04/10 07:09:50;;;;;;;9.05;4.63;;;6.60;52.80;;;;;;5108819;28;20024;-65
2021/04/10 07:12:17;;;;;;;8.27;5.47;;;6.70;52.80;;;;;;5112516;28;20031;-66
2021/04/10 07:14:43;;;;;;;9.15;4.90;;;6.80;52.70;;;;;;5099622;28;20597;-66
2021/04/10 07:17:12;;;;;;;8.73;5.47;;;6.90;52.70;;;;;;5096906;28;20112;-66
2021/04/10 07:19:38;;;;;;;8.45;3.83;;;7.00;52.60;;;;;;5098201;28;20060;-66
2021/04/10 07:22:12;;;;;;;9.93;4.75;;;7.10;52.60;;;;;;5100405;28;20020;-65
2021/04/10 07:24:47;;;;;;;8.52;4.03;;;7.30;52.50;;;;;;5103042;28;20040;-64
2021/04/10 07:27:19;;;;;;;10.77;4.70;;;7.30;52.40;;;;;;5079165;28;20024;-64
2021/04/10 07:29:50;;;;;;;7.65;5.30;;;7.40;52.40;;;;;;5097919;28;20052;-66
2021/04/10 07:32:32;;;;;;;8.13;4.78;;;7.60;52.40;;;;;;5091191;28;20036;-65
2021/04/10 07:35:07;;;;;;;5.35;3.80;;;7.70;52.30;;;;;;5097717;28;20034;-65
2021/04/10 07:37:43;;;;;;;10.00;4.55;;;7.80;52.20;;;;;;5099745;28;20035;-66
2021/04/10 07:40:17;;;;;;;7.75;4.07;;;7.90;52.20;;;;;;5101344;28;20122;-66
2021/04/10 07:42:46;;;;;;;7.10;3.85;;;8.10;52.20;;;;;;5116373;28;20019;-67
2021/04/10 07:45:24;;;;;;;5.22;3.67;;;8.20;52.10;;;;;;5105016;28;20493;-66
2021/04/10 07:47:51;;;;;;;8.68;3.40;;;8.30;52.00;;;;;;5072799;28;20414;-66
2021/04/10 07:50:19;;;;;;;5.30;3.85;;;8.40;51.90;;;;;;5116378;28;20076;-66
2021/04/10 07:52:45;;;;;;;5.20;2.90;;;8.40;51.70;;;;;;5097591;28;20478;-66
2021/04/10 07:55:41;;;;;;;4.45;2.97;;;8.40;51.70;;;;;;5114105;28;20019;-66
2021/04/10 07:58:23;;;;;;;8.13;3.63;;;8.50;51.60;;;;;;5067649;28;20036;-67
2021/04/10 08:00:50;;;;;;;7.00;3.30;;;8.50;51.70;;;;;;5100703;28;20042;-67
2021/04/10 08:03:22;;;;;;;5.68;3.28;;;8.60;51.80;;;;;;5112878;28;20470;-65
2021/04/10 08:05:48;;;;;;;5.57;2.58;;;8.70;51.60;;;;;;5095942;28;20036;-66
2021/04/10 08:08:26;;;;;;;7.35;2.97;;;8.80;51.60;;;;;;5095564;28;20107;-66
2021/04/10 08:11:06;;;;;;;5.50;2.80;;;8.80;51.40;;;;;;5104199;28;20032;-66
2021/04/10 08:13:33;;;;;;;5.20;2.63;;;8.90;51.50;;;;;;5096066;28;20423;-66
2021/04/10 08:16:16;;;;;;;5.18;2.83;;;9.00;51.50;;;;;;5095576;28;20035;-66
2021/04/10 08:18:47;;;;;;;4.50;2.60;;;9.10;51.50;;;;;;5097169;28;20028;-65
2021/04/10 08:21:15;;;;;;;5.97;2.55;;;9.20;51.40;;;;;;5085402;28;20039;-66
2021/04/10 08:23:41;;;;;;;4.93;2.67;;;9.30;51.40;;;;;;5074044;28;20024;-67
2021/04/10 08:26:08;;;;;;;5.78;2.60;;;9.30;51.40;;;;;;5091496;28;20044;-66
2021/04/10 08:28:38;;;;;;;5.57;2.75;;;9.50;51.30;;;;;;5096123;28;20016;-66
2021/04/10 08:31:04;;;;;;;5.50;2.30;;;9.50;51.20;;;;;;5108118;28;20385;-66
2021/04/10 08:33:31;;;;;;;5.00;2.88;;;9.60;51.20;;;;;;5116464;28;20080;-66
2021/04/10 08:35:58;;;;;;;5.25;2.83;;;9.80;51.70;;;;;;5104415;28;20077;-67
2021/04/10 08:38:27;;;;;;;5.13;3.00;;;9.90;51.10;;;;;;5085588;28;20032;-65
2021/04/10 08:40:58;;;;;;;5.97;2.72;;;9.90;51.00;;;;;;5074478;28;20056;-66
2021/04/10 08:43:27;;;;;;;7.07;2.50;;;10.00;50.80;;;;;;5091716;28;20024;-66
2021/04/10 08:45:54;;;;;;;7.10;2.42;;;10.10;50.80;;;;;;5094142;28;20028;-67
2021/04/10 08:48:22;;;;;;;3.33;2.30;;;10.20;50.70;;;;;;5094168;28;20084;-66
2021/04/10 08:50:51;;;;;;;3.38;2.10;;;10.20;50.60;;;;;;5076196;28;20474;-66
2021/04/10 08:53:30;;;;;;;3.60;2.13;;;10.30;50.40;;;;;;5094578;28;20077;-66
2021/04/10 08:55:56;;;;;;;6.05;2.35;;;10.30;50.20;;;;;;5095643;28;20089;-66
2021/04/10 08:58:24;;;;;;;5.40;2.22;;;10.30;50.00;;;;;;5094158;28;20031;-66
2021/04/10 09:01:07;;;;;;;8.20;2.38;;;10.30;49.90;;;;;;5094357;28;20052;-65
2021/04/10 09:03:45;;;;;;;4.38;2.60;;;10.40;49.90;;;;;;5076122;28;20036;-64
2021/04/10 09:06:34;;;;;;;3.85;2.30;;;10.40;49.70;;;;;;5094369;28;20099;-66
2021/04/10 09:09:12;;;;;;;4.32;2.10;;;10.40;49.70;;;;;;5086458;28;20070;-66
2021/04/10 09:11:39;;;;;;;5.57;2.33;;;10.50;50.30;;;;;;5097727;28;20078;-66
2021/04/10 09:14:05;;;;;;;5.55;2.35;;;10.60;49.70;;;;;;5110796;28;20063;-66
2021/04/10 09:16:39;;;;;;;4.20;2.20;;;10.70;49.50;;;;;;5098487;28;20031;-66
2021/04/10 09:19:15;;;;;;;3.75;2.00;;;10.70;49.40;;;;;;5096339;28;20023;-66
2021/04/10 09:21:56;;;;;;;5.63;2.30;;;10.80;49.50;;;;;;5093803;28;20367;-66
2021/04/10 09:24:24;;;;;;;4.90;2.17;;;10.80;49.20;;;;;;5095715;28;20559;-65
2021/04/10 09:27:04;;;;;;;6.60;2.20;;;10.90;49.30;;;;;;5093561;28;20024;-66
2021/04/10 09:29:44;;;;;;;4.78;2.13;;;11.00;49.20;;;;;;5093840;28;20047;-66
2021/04/10 09:32:10;;;;;;;5.20;2.25;;;11.10;48.80;;;;;;5093976;28;20488;-67
2021/04/10 09:34:50;;;;;;;10.43;3.40;;;11.20;48.90;;;;;;5093657;28;20024;-67
2021/04/10 09:37:25;;;;;;;3.72;2.75;;;11.20;48.50;;;;;;5094602;28;20475;-66
2021/04/10 09:39:56;;;;;;;8.50;3.22;;;11.20;48.30;;;;;;5109260;28;20028;-67
2021/04/10 09:42:37;;;;;;;4.75;2.05;;;11.30;48.30;;;;;;5093702;28;20368;-67
2021/04/10 09:45:04;;;;;;;4.80;2.40;;;11.30;47.90;;;;;;5094427;28;20031;-66
2021/04/10 09:47:52;;;;;;;7.53;2.67;;;11.30;48.10;;;;;;5095547;28;20024;-66
2021/04/10 09:50:18;;;;;;;3.60;2.10;;;11.20;47.80;;;;;;5093458;28;20107;-67
2021/04/10 09:52:50;;;;;;;4.40;1.75;;;11.20;47.90;;;;;;5094247;28;20501;-66
2021/04/10 09:55:19;;;;;;;5.88;2.00;;;11.30;47.80;;;;;;5109054;28;20032;-67
2021/04/10 09:57:51;;;;;;;4.25;2.17;;;11.40;47.70;;;;;;5109717;28;20512;-67
2021/04/10 10:00:30;;;;;;;5.20;2.00;;;11.40;47.50;;;;;;5107169;28;20028;-66
2021/04/10 10:02:57;;;;;;;1.85;1.67;;;11.50;47.20;;;;;;5103694;28;20039;-66
2021/04/10 10:05:29;;;;;;;4.88;1.98;;;11.60;47.10;;;;;;5094023;28;20042;-68
2021/04/10 10:08:05;;;;;;;3.88;2.17;;;11.60;47.10;;;;;;5093587;28;20036;-66
2021/04/10 10:10:36;;;;;;;3.90;2.35;;;11.70;46.80;;;;;;5093436;28;20027;-67
2021/04/10 10:13:10;;;;;;;2.38;1.60;;;11.70;47.00;;;;;;5093414;28;20498;-68
2021/04/10 10:15:36;;;;;;;4.57;2.33;;;11.90;46.80;;;;;;5092785;28;20024;-67
2021/04/10 10:18:24;;;;;;;3.55;1.92;;;11.90;46.50;;;;;;5094311;28;20020;-67
2021/04/10 10:20:53;;;;;;;3.25;2.00;;;11.70;46.10;;;;;;5093681;28;20021;-67
2021/04/10 10:23:19;;;;;;;3.33;1.73;;;11.60;46.30;;;;;;5095885;28;20016;-66
2021/04/10 10:25:45;;;;;;;3.05;1.90;;;11.50;46.50;;;;;;5092581;28;20042;-67
2021/04/10 10:28:15;;;;;;;1.70;1.60;;;11.50;46.50;;;;;;5108742;28;20031;-65
2021/04/10 10:30:42;;;;;;;3.28;2.35;;;11.50;46.20;;;;;;5092882;28;20065;-67
2021/04/10 10:33:08;;;;;;;4.13;1.77;;;11.60;46.40;;;;;;5094679;28;20052;-66
2021/04/10 10:35:34;;;;;;;2.83;1.65;;;11.80;46.70;;;;;;5093088;28;20387;-67
2021/04/10 10:38:05;;;;;;;2.25;1.70;;;12.00;46.20;;;;;;5093285;28;20060;-65
2021/04/10 10:40:34;;;;;;;3.13;1.75;;;12.00;45.40;;;;;;5094785;28;20028;-67
2021/04/10 10:43:06;;;;;;;4.05;1.60;;;12.00;45.10;;;;;;5092991;28;20073;-65
2021/04/10 10:45:43;;;;;;;1.88;1.63;;;12.00;44.90;;;;;;5093513;28;20017;-64
2021/04/10 10:48:25;;;;;;;6.57;1.80;;;12.20;44.50;;;;;;5092412;28;20032;-63
2021/04/10 10:51:06;;;;;;;2.38;1.80;;;12.30;44.30;;;;;;5092529;28;20020;-65
2021/04/10 10:53:40;;;;;;;4.25;2.17;;;12.30;44.00;;;;;;5093835;28;20443;-65
2021/04/10 10:56:08;;;;;;;2.17;1.50;;;12.10;43.60;;;;;;5108001;28;20540;-67
2021/04/10 10:58:55;;;;;;;2.03;1.70;;;11.90;43.80;;;;;;5108786;28;20054;-65
2021/04/10 11:01:42;;;;;;;3.42;1.73;;;11.80;44.10;;;;;;5072608;28;20554;-67
2021/04/10 11:04:22;;;;;;;3.65;2.20;;;11.70;44.40;;;;;;5045034;28;20065;-66
2021/04/10 11:06:49;;;;;;;3.60;1.75;;;11.90;44.80;;;;;;5092559;28;20055;-66
2021/04/10 11:09:18;;;;;;;2.10;1.90;;;12.00;44.70;;;;;;5093297;28;20016;-66
2021/04/10 11:11:46;;;;;;;4.30;2.42;;;12.20;45.10;;;;;;5092703;28;20024;-66
2021/04/10 11:14:21;;;;;;;2.75;1.83;;;12.50;44.60;;;;;;5092233;28;20047;-66
2021/04/10 11:16:49;;;;;;;5.05;2.50;;;12.70;44.10;;;;;;5092258;28;20016;-65
2021/04/10 11:19:39;;;;;;;2.97;2.00;;;12.80;43.70;;;;;;5094014;28;20047;-67
2021/04/10 11:22:13;;;;;;;4.20;2.75;;;12.70;43.30;;;;;;5092143;28;20024;-67
2021/04/10 11:24:38;;;;;;;10.18;4.88;;;12.50;43.30;;;;;;5091937;28;20040;-66
2021/04/10 11:27:22;;;;;;;6.97;3.53;;;12.30;43.30;;;;;;5092690;28;20032;-66
2021/04/10 11:29:59;;;;;;;9.38;6.00;;;12.20;43.40;;;;;;5092364;28;20425;-66
2021/04/10 11:32:36;;;;;;;27.63;22.30;;;12.30;43.80;;;;;;5092371;28;20111;-69
2021/04/10 11:35:21;;;;;;;2.88;2.50;;;12.50;43.70;;;;;;5093846;28;20028;-66
2021/04/10 11:37:51;;;;;;;4.35;2.10;;;12.80;43.30;;;;;;5092124;28;20111;-62
2021/04/10 11:40:17;;;;;;;5.68;2.25;;;13.10;60.70;;;;;;5092244;28;20024;-65
2021/04/10 11:42:51;;;;;;;2.75;1.67;;;13.00;42.20;;;;;;5092125;28;20086;-66
2021/04/10 11:45:37;;;;;;;1.60;1.50;;;13.00;42.10;;;;;;5092430;28;20081;-66
2021/04/10 11:48:25;;;;;;;3.45;1.90;;;13.20;41.80;;;;;;5078801;28;20039;-67
2021/04/10 11:50:58;;;;;;;3.17;1.70;;;13.40;41.40;;;;;;5092744;28;20024;-66
2021/04/10 11:53:28;;;;;;;3.35;1.50;;;13.70;42.40;;;;;;5092499;28;20028;-66
2021/04/10 11:55:58;;;;;;;3.50;1.67;;;14.00;41.40;;;;;;5092701;28;20020;-64
2021/04/10 11:58:33;;;;;;;4.15;3.75;;;14.00;40.80;;;;;;5093253;28;20025;-65
2021/04/10 12:01:08;;;;;;;4.10;3.70;;;14.00;40.60;;;;;;5094233;28;20462;-65
2021/04/10 12:03:46;;;;;;;5.07;3.50;;;14.10;40.60;;;;;;5097903;28;20063;-67
2021/04/10 12:06:31;;;;;;;1.90;1.52;;;14.10;40.50;;;;;;5096188;28;20128;-65
2021/04/10 12:09:15;;;;;;;2.80;1.40;;;14.20;40.00;;;;;;5095750;28;20024;-66
2021/04/10 12:11:43;;;;;;;1.73;1.63;;;14.10;39.60;;;;;;5075171;28;20265;-66
2021/04/10 12:14:13;;;;;;;1.90;1.70;;;13.90;39.80;;;;;;5076275;28;20086;-66
2021/04/10 12:16:40;;;;;;;3.08;1.77;;;13.90;39.80;;;;;;5098667;28;20078;-66
2021/04/10 12:19:08;;;;;;;1.70;1.60;;;13.80;39.70;;;;;;5095159;28;20032;-64
2021/04/10 12:21:34;;;;;;;3.90;1.52;;;13.80;39.70;;;;;;5075673;28;20483;-67
2021/04/10 12:24:00;;;;;;;2.08;1.50;;;13.70;39.60;;;;;;5074801;28;20467;-65
2021/04/10 12:26:27;;;;;;;3.10;2.00;;;13.70;39.90;;;;;;5094212;28;20039;-65
2021/04/10 12:28:53;;;;;;;3.08;1.80;;;13.90;40.00;;;;;;5094755;28;20133;-65
2021/04/10 12:31:21;;;;;;;3.63;1.90;;;14.00;40.00;;;;;;5094662;28;20024;-66
2021/04/10 12:33:47;;;;;;;2.30;1.60;;;14.40;39.90;;;;;;5095094;28;20023;-66
2021/04/10 12:36:13;;;;;;;2.80;2.08;;;14.80;39.50;;;;;;5095505;28;20032;-67
2021/04/10 12:38:42;;;;;;;4.13;1.80;;;14.90;39.00;;;;;;5094689;28;20028;-65
2021/04/10 12:41:09;;;;;;;3.03;1.85;;;15.00;38.50;;;;;;5076444;28;20035;-65
2021/04/10 12:43:35;;;;;;;2.78;1.70;;;15.10;38.40;;;;;;5094769;28;20024;-66
2021/04/10 12:46:01;;;;;;;2.15;1.73;;;15.30;38.50;;;;;;5094213;28;20050;-66
2021/04/10 12:48:27;;;;;;;3.60;2.00;;;15.50;38.50;;;;;;5094436;28;20463;-66
2021/04/10 12:50:53;;;;;;;3.78;2.10;;;15.70;38.30;;;;;;5095178;28;20021;-66
2021/04/10 12:53:18;;;;;;;3.67;2.25;;;16.10;38.40;;;;;;5094816;28;20024;-66
2021/04/10 12:55:45;;;;;;;2.22;1.80;;;;;;;;;;5094374;28;20107;-66
2021/04/10 12:58:10;;;;;;;2.95;1.90;;;17.60;48.50;;;;;;5094618;28;20047;-67
2021/04/10 13:00:36;;;;;;;2.40;2.20;;;18.40;38.30;;;;;;5094689;28;20055;-66
2021/04/10 13:03:03;;;;;;;3.50;2.20;;;19.10;37.40;;;;;;5094173;28;20028;-66
2021/04/10 13:05:29;;;;;;;3.42;1.80;;;19.90;36.80;;;;;;5095435;28;20454;-66